Time;durP1;ratioP1;P1;durP2;ratioP2;P2;SDS_P1;SDS_P2;PMS_P1;PMS_P2;Temp;Humidity;BMP_temperature;BMP_pressure;BME280_temperature;BME280_humidity;BME280_pressure;Samples;Min_cycle;Max_cycle;Signal;HPM_P1;HPM_P2
2021/01/11 00:00:32;;;;;;;41.67;16.50;;;-2.60;99.90;;;;;;5021818;28;20052;-78
2021/01/11 00:02:58;;;;;;;38.70;16.35;;;-2.60;99.90;;;;;;5019881;28;20043;-78
2021/01/11 00:05:24;;;;;;;39.83;17.42;;;-2.60;99.90;;;;;;5020624;28;20044;-79
2021/01/11 00:07:50;;;;;;;41.15;17.98;;;-2.60;99.90;;;;;;5036332;28;20033;-78
2021/01/11 00:10:15;;;;;;;44.88;18.15;;;-2.60;99.90;;;;;;5019802;28;20041;-78
2021/01/11 00:12:43;;;;;;;37.75;17.42;;;-2.50;99.90;;;;;;5022016;28;20056;-78
2021/01/11 00:15:10;;;;;;;38.92;17.15;;;-2.60;99.90;;;;;;5022274;28;20087;-79
2021/01/11 00:17:36;;;;;;;37.67;17.48;;;-2.60;99.90;;;;;;5021006;28;20664;-78
2021/01/11 00:20:04;;;;;;;38.58;16.98;;;-2.60;99.90;;;;;;5022946;28;20037;-78
2021/01/11 00:22:30;;;;;;;48.17;18.35;;;-2.70;99.90;;;;;;5020023;28;20580;-78
2021/01/11 00:24:55;;;;;;;41.88;15.48;;;-2.70;99.90;;;;;;5024221;28;20088;-79
2021/01/11 00:27:21;;;;;;;52.95;18.73;;;-2.70;99.90;;;;;;5039596;28;20042;-78
2021/01/11 00:29:46;;;;;;;44.03;18.23;;;-2.80;99.90;;;;;;5025268;28;20177;-78
2021/01/11 00:32:12;;;;;;;42.42;16.77;;;-2.80;99.90;;;;;;5025145;28;20500;-79
2021/01/11 00:34:38;;;;;;;45.58;18.90;;;-2.80;99.90;;;;;;5024662;28;20063;-78
2021/01/11 00:37:03;;;;;;;40.13;17.63;;;-2.80;99.90;;;;;;5025965;28;20061;-78
2021/01/11 00:39:29;;;;;;;45.00;17.55;;;-2.90;99.90;;;;;;5027138;28;20448;-79
2021/01/11 00:41:59;;;;;;;45.70;19.25;;;-2.90;99.90;;;;;;5025418;28;20068;-79
2021/01/11 00:44:25;;;;;;;46.75;17.83;;;-2.90;99.90;;;;;;5025581;28;20037;-79
2021/01/11 00:46:51;;;;;;;50.28;19.92;;;-3.00;99.90;;;;;;5026231;28;20775;-78
2021/01/11 00:49:17;;;;;;;46.55;18.40;;;-3.00;99.90;;;;;;5025131;28;20049;-78
2021/01/11 00:51:42;;;;;;;50.25;18.80;;;-3.00;99.90;;;;;;5025045;28;20099;-78
2021/01/11 00:54:08;;;;;;;43.22;17.70;;;-3.00;99.90;;;;;;5025598;28;20041;-78
2021/01/11 00:56:34;;;;;;;44.63;18.75;;;-3.00;99.90;;;;;;5025466;28;20406;-78
2021/01/11 00:59:00;;;;;;;42.33;17.80;;;-3.00;99.90;;;;;;5026915;28;20461;-78
2021/01/11 01:01:25;;;;;;;41.58;17.08;;;-3.10;99.90;;;;;;5022743;28;20065;-78
2021/01/11 01:03:51;;;;;;;47.25;19.63;;;-3.00;99.90;;;;;;5024611;28;20137;-78
2021/01/11 01:06:17;;;;;;;50.22;18.90;;;-3.20;99.90;;;;;;5025248;28;20383;-78
2021/01/11 01:08:43;;;;;;;45.70;18.67;;;-3.10;99.90;;;;;;5025376;28;20061;-78
2021/01/11 01:11:11;;;;;;;39.63;17.13;;;-3.20;99.90;;;;;;5025145;28;20563;-78
2021/01/11 01:13:38;;;;;;;44.85;16.67;;;-3.00;99.90;;;;;;5024543;28;20121;-78
2021/01/11 01:16:05;;;;;;;44.45;19.25;;;-3.10;99.90;;;;;;5017833;28;20489;-78
2021/01/11 01:18:31;;;;;;;50.42;18.50;;;-3.10;99.90;;;;;;5024351;28;20059;-78
2021/01/11 01:20:57;;;;;;;49.80;17.67;;;-3.20;99.90;;;;;;5040454;28;20033;-78
2021/01/11 01:23:22;;;;;;;45.03;18.02;;;-3.20;99.90;;;;;;5022137;28;20060;-78
2021/01/11 01:25:48;;;;;;;44.40;17.20;;;-3.20;99.90;;;;;;5025521;28;20500;-78
2021/01/11 01:28:14;;;;;;;40.88;17.60;;;-3.20;99.90;;;;;;5026128;28;20140;-78
2021/01/11 01:30:39;;;;;;;50.30;17.52;;;-3.10;99.90;;;;;;5026130;28;20037;-78
2021/01/11 01:33:05;;;;;;;41.78;17.25;;;-3.20;99.90;;;;;;5025153;28;20036;-78
2021/01/11 01:35:30;;;;;;;41.20;17.50;;;-3.20;99.90;;;;;;5024522;28;20029;-78
2021/01/11 01:37:56;;;;;;;45.40;16.75;;;-3.20;99.90;;;;;;5021292;28;20571;-78
2021/01/11 01:40:24;;;;;;;39.78;16.70;;;-3.20;99.90;;;;;;5023871;28;20033;-78
2021/01/11 01:42:50;;;;;;;42.25;17.35;;;-3.20;99.90;;;;;;5023748;28;20440;-78
2021/01/11 01:45:16;;;;;;;43.63;18.70;;;-3.20;99.90;;;;;;5024973;28;20444;-78
2021/01/11 01:47:42;;;;;;;41.38;17.35;;;-3.30;99.90;;;;;;5023630;28;20045;-78
2021/01/11 01:50:08;;;;;;;43.78;17.98;;;-3.30;99.90;;;;;;5024814;28;20112;-78
2021/01/11 01:52:37;;;;;;;40.17;17.48;;;-3.40;99.90;;;;;;5022056;28;20040;-78
2021/01/11 01:55:04;;;;;;;41.72;17.63;;;-3.40;99.90;;;;;;5026837;28;20040;-78
2021/01/11 01:57:29;;;;;;;49.53;19.40;;;-3.40;99.90;;;;;;5021180;28;20116;-78
2021/01/11 01:59:55;;;;;;;45.78;18.10;;;-3.40;99.90;;;;;;5020440;28;20099;-78
2021/01/11 02:02:20;;;;;;;41.95;18.35;;;-3.40;99.90;;;;;;5022729;28;20379;-78
2021/01/11 02:04:46;;;;;;;47.60;17.90;;;-3.50;99.90;;;;;;5022775;28;20535;-78
2021/01/11 02:07:49;;;;;;;48.75;19.35;;;-3.50;99.90;;;;;;5023505;28;20109;-78
2021/01/11 02:10:26;;;;;;;41.08;17.40;;;-3.50;99.90;;;;;;5023402;28;20037;-78
2021/01/11 02:13:14;;;;;;;41.75;17.42;;;-3.50;99.90;;;;;;5022537;28;20033;-78
2021/01/11 02:15:52;;;;;;;41.85;17.25;;;-3.50;99.90;;;;;;5022642;28;20044;-78
2021/01/11 02:18:39;;;;;;;46.40;18.65;;;-3.50;99.90;;;;;;5038323;28;20040;-78
2021/01/11 02:21:24;;;;;;;47.38;19.73;;;-3.60;99.90;;;;;;5022285;28;20397;-78
2021/01/11 02:24:30;;;;;;;40.92;17.27;;;-3.60;99.90;;;;;;5022002;28;20071;-78
2021/01/11 02:27:35;;;;;;;39.80;17.50;;;-3.60;99.90;;;;;;5024385;28;20095;-79
2021/01/11 02:30:12;;;;;;;47.80;19.58;;;-3.70;99.90;;;;;;5022640;28;20033;-78
2021/01/11 02:32:50;;;;;;;48.40;21.23;;;-3.60;99.90;;;;;;5020479;28;20110;-79
2021/01/11 02:35:17;;;;;;;54.97;21.17;;;-3.60;99.90;;;;;;5022378;28;20037;-79
2021/01/11 02:37:43;;;;;;;53.42;21.70;;;-3.60;99.90;;;;;;5021532;28;20063;-79
2021/01/11 02:40:10;;;;;;;50.75;19.73;;;-3.70;99.90;;;;;;5022459;28;20080;-79
2021/01/11 02:42:36;;;;;;;51.70;19.73;;;-3.60;99.90;;;;;;5021170;28;20030;-79
2021/01/11 02:45:05;;;;;;;44.72;19.52;;;-3.60;99.90;;;;;;5024551;28;20067;-78
2021/01/11 02:48:03;;;;;;;47.65;20.50;;;-3.70;99.90;;;;;;5020407;28;20853;-78
2021/01/11 02:50:33;;;;;;;49.95;18.67;;;-3.80;99.90;;;;;;5023044;28;20555;-78
2021/01/11 02:53:04;;;;;;;50.20;19.70;;;-3.80;99.90;;;;;;5020431;28;20037;-78
2021/01/11 02:55:52;;;;;;;52.33;20.38;;;-3.80;99.90;;;;;;5020160;28;20045;-78
2021/01/11 02:58:41;;;;;;;51.83;21.25;;;-3.80;99.90;;;;;;5021647;28;20029;-78
2021/01/11 03:01:10;;;;;;;47.38;18.08;;;-3.80;99.90;;;;;;5019736;28;20038;-78
2021/01/11 03:03:38;;;;;;;50.63;19.48;;;-3.80;99.90;;;;;;5019810;28;20132;-78
2021/01/11 03:06:04;;;;;;;51.70;21.45;;;-3.90;99.90;;;;;;5020616;28;20036;-78
2021/01/11 03:08:29;;;;;;;49.60;18.88;;;-3.90;99.90;;;;;;5021160;28;20029;-79
2021/01/11 03:10:55;;;;;;;48.38;19.45;;;-3.80;99.90;;;;;;5021491;28;20034;-79
2021/01/11 03:13:20;;;;;;;50.63;19.00;;;-3.80;99.90;;;;;;5022629;28;20033;-79
2021/01/11 03:15:46;;;;;;;48.95;20.50;;;-3.80;99.90;;;;;;5022797;28;20802;-79
2021/01/11 03:18:12;;;;;;;50.10;20.08;;;-3.80;99.90;;;;;;5020003;28;20033;-78
2021/01/11 03:20:38;;;;;;;51.75;19.75;;;-3.80;99.90;;;;;;5021235;28;20072;-78
2021/01/11 03:23:03;;;;;;;47.20;18.48;;;-3.90;99.90;;;;;;5022057;28;20038;-79
2021/01/11 03:25:29;;;;;;;45.55;19.27;;;-3.80;99.90;;;;;;5011023;28;20030;-78
2021/01/11 03:27:54;;;;;;;47.33;19.15;;;-3.90;99.90;;;;;;5019585;28;20049;-79
2021/01/11 03:30:20;;;;;;;58.00;19.30;;;-3.90;99.90;;;;;;5021382;28;20573;-78
2021/01/11 03:32:49;;;;;;;46.30;18.05;;;-3.90;99.90;;;;;;5021092;28;20049;-77
2021/01/11 03:35:15;;;;;;;48.00;19.30;;;-3.90;99.90;;;;;;5038301;28;20059;-78
2021/01/11 03:37:40;;;;;;;51.17;20.27;;;-3.90;99.90;;;;;;5023011;28;20029;-78
2021/01/11 03:40:07;;;;;;;50.58;19.00;;;-4.00;99.90;;;;;;5022292;28;20549;-78
2021/01/11 03:42:37;;;;;;;37.75;16.80;;;-4.00;99.90;;;;;;5019348;28;20145;-77
2021/01/11 03:45:04;;;;;;;42.58;18.27;;;-4.00;99.90;;;;;;5021571;28;20049;-77
2021/01/11 03:47:29;;;;;;;42.22;17.58;;;-4.00;99.90;;;;;;5038312;28;20025;-77
2021/01/11 03:49:57;;;;;;;39.03;16.80;;;-4.10;99.90;;;;;;5011717;28;20072;-77
2021/01/11 03:52:23;;;;;;;39.83;15.38;;;-4.00;99.90;;;;;;5020922;28;20030;-78
2021/01/11 03:54:49;;;;;;;47.83;17.65;;;-4.10;99.90;;;;;;5020085;28;20486;-77
2021/01/11 03:57:14;;;;;;;52.28;17.95;;;-4.10;99.90;;;;;;5027701;28;20044;-77
2021/01/11 03:59:40;;;;;;;41.63;17.05;;;-4.10;99.90;;;;;;5020941;28;20069;-78
2021/01/11 04:02:05;;;;;;;42.38;18.17;;;-4.10;99.90;;;;;;5019128;28;20130;-77
2021/01/11 04:04:31;;;;;;;40.10;17.30;;;-4.10;99.90;;;;;;5019932;28;20041;-77
2021/01/11 04:06:56;;;;;;;41.72;17.70;;;-4.10;99.90;;;;;;5020793;28;20041;-77
2021/01/11 04:09:22;;;;;;;46.83;16.38;;;-4.20;99.90;;;;;;5021320;28;20033;-77
2021/01/11 04:11:47;;;;;;;43.38;17.23;;;-4.20;99.90;;;;;;5021765;28;20488;-77
2021/01/11 04:14:13;;;;;;;41.53;17.00;;;-4.20;99.90;;;;;;5020652;28;20125;-77
2021/01/11 04:16:39;;;;;;;43.63;18.05;;;-4.20;99.90;;;;;;5020296;28;20788;-77
2021/01/11 04:19:04;;;;;;;50.22;17.27;;;-4.20;99.90;;;;;;5021215;28;20129;-76
2021/01/11 04:21:30;;;;;;;45.58;16.75;;;-4.20;99.90;;;;;;5018960;28;20091;-77
2021/01/11 04:23:55;;;;;;;33.70;16.77;;;-4.20;99.90;;;;;;5021457;28;20047;-77
2021/01/11 04:26:21;;;;;;;43.33;18.80;;;-4.20;99.90;;;;;;5021364;28;20034;-77
2021/01/11 04:28:46;;;;;;;44.42;17.73;;;-4.20;99.90;;;;;;5021933;28;20048;-77
2021/01/11 04:31:12;;;;;;;46.45;17.55;;;-4.20;99.90;;;;;;5021528;28;20406;-78
2021/01/11 04:33:37;;;;;;;39.60;17.83;;;-4.20;99.90;;;;;;5019460;28;20150;-77
2021/01/11 04:36:04;;;;;;;45.33;17.58;;;-4.20;99.90;;;;;;5020009;28;20041;-77
2021/01/11 04:38:30;;;;;;;42.25;15.80;;;-4.30;99.90;;;;;;5021041;28;20514;-77
2021/01/11 04:41:03;;;;;;;46.35;18.55;;;-4.20;99.90;;;;;;5020740;28;20148;-77
2021/01/11 04:43:34;;;;;;;58.55;17.85;;;-4.30;99.90;;;;;;5020016;28;20037;-77
2021/01/11 04:46:00;;;;;;;38.10;17.40;;;-4.30;99.90;;;;;;5020661;28;20029;-77
2021/01/11 04:48:26;;;;;;;49.67;19.35;;;-4.30;99.90;;;;;;5020921;28;20061;-78
2021/01/11 04:50:52;;;;;;;45.05;18.38;;;-4.30;99.90;;;;;;5022485;28;20037;-78
2021/01/11 04:53:19;;;;;;;34.72;16.88;;;-4.20;99.90;;;;;;5021233;28;20033;-77
2021/01/11 04:55:46;;;;;;;47.38;17.85;;;-4.30;99.90;;;;;;5021465;28;20124;-77
2021/01/11 04:58:12;;;;;;;40.83;16.63;;;-4.30;99.90;;;;;;5019641;28;20026;-78
2021/01/11 05:00:41;;;;;;;46.22;17.45;;;-4.30;99.90;;;;;;5021207;28;20507;-78
2021/01/11 05:03:09;;;;;;;42.50;17.65;;;-4.30;99.90;;;;;;5020104;28;20381;-78
2021/01/11 05:05:37;;;;;;;41.88;16.48;;;-4.40;99.90;;;;;;5024137;28;20087;-78
2021/01/11 05:08:03;;;;;;;43.78;17.38;;;-4.40;99.90;;;;;;5020236;28;20049;-78
2021/01/11 05:10:30;;;;;;;35.72;15.88;;;-4.40;99.90;;;;;;5018735;28;20060;-77
2021/01/11 05:13:07;;;;;;;47.17;16.35;;;-4.40;99.90;;;;;;5023775;28;20045;-79
2021/01/11 05:15:37;;;;;;;39.20;15.75;;;-4.40;99.90;;;;;;5025860;28;20147;-78
2021/01/11 05:18:16;;;;;;;50.22;18.40;;;-4.40;99.90;;;;;;5025014;28;20061;-78
2021/01/11 05:20:42;;;;;;;46.30;17.85;;;-4.50;99.90;;;;;;5026234;28;20041;-77
2021/01/11 05:23:12;;;;;;;47.55;18.42;;;-4.40;99.90;;;;;;5025177;28;20025;-77
2021/01/11 05:25:39;;;;;;;46.33;16.98;;;-4.40;99.90;;;;;;5023732;28;20040;-77
2021/01/11 05:28:13;;;;;;;38.45;15.73;;;-4.40;99.90;;;;;;5040084;28;20091;-77
2021/01/11 05:30:46;;;;;;;43.03;16.67;;;-4.40;99.90;;;;;;5024431;28;20049;-77
2021/01/11 05:33:24;;;;;;;42.43;16.70;;;-4.40;99.90;;;;;;5024084;28;20541;-77
2021/01/11 05:36:05;;;;;;;42.05;16.23;;;-4.40;99.90;;;;;;5021899;28;20272;-77
2021/01/11 05:38:46;;;;;;;45.33;16.27;;;-4.40;99.90;;;;;;5024753;28;20041;-77
2021/01/11 05:41:23;;;;;;;43.28;17.60;;;-4.40;99.90;;;;;;5024710;28;20039;-78
2021/01/11 05:44:08;;;;;;;47.25;16.33;;;-4.40;99.90;;;;;;5025810;28;20046;-78
2021/01/11 05:46:35;;;;;;;44.22;16.67;;;-4.40;99.90;;;;;;5025531;28;20037;-78
2021/01/11 05:49:05;;;;;;;38.35;16.00;;;-4.40;99.90;;;;;;5024841;28;20164;-78
2021/01/11 05:51:33;;;;;;;40.35;15.82;;;-4.40;99.90;;;;;;5023325;28;20038;-78
2021/01/11 05:53:59;;;;;;;44.63;17.95;;;-4.40;99.90;;;;;;5023709;28;20045;-77
2021/01/11 05:56:25;;;;;;;45.17;17.80;;;-4.40;99.90;;;;;;5022337;28;20121;-77
2021/01/11 05:59:03;;;;;;;40.97;16.23;;;-4.40;99.90;;;;;;5024802;28;20506;-76
2021/01/11 06:01:33;;;;;;;43.05;16.35;;;-4.40;99.90;;;;;;5023189;28;20405;-77
2021/01/11 06:03:59;;;;;;;43.92;18.25;;;-4.40;99.90;;;;;;5024509;28;20460;-78
2021/01/11 06:06:25;;;;;;;48.55;17.15;;;-4.40;99.90;;;;;;5039039;28;20037;-78
2021/01/11 06:08:52;;;;;;;45.15;18.08;;;-4.40;99.90;;;;;;5025359;28;20497;-78
2021/01/11 06:11:21;;;;;;;50.67;18.20;;;-4.40;99.90;;;;;;5024070;28;20033;-78
2021/01/11 06:13:49;;;;;;;46.35;16.23;;;-4.50;99.90;;;;;;5025013;28;20124;-77
2021/01/11 06:16:21;;;;;;;45.90;17.80;;;-4.50;99.90;;;;;;5040930;28;20132;-78
2021/01/11 06:18:51;;;;;;;51.05;19.65;;;-4.50;99.90;;;;;;5025468;28;20042;-78
2021/01/11 06:21:21;;;;;;;45.30;17.58;;;-4.40;99.90;;;;;;5024843;28;20433;-78
2021/01/11 06:23:48;;;;;;;44.15;18.00;;;-4.30;99.90;;;;;;5035060;28;20124;-79
2021/01/11 06:26:30;;;;;;;50.80;19.35;;;-4.30;99.90;;;;;;5021638;28;20128;-77
2021/01/11 06:28:57;;;;;;;54.85;19.25;;;-4.30;99.90;;;;;;5021431;28;20424;-81
2021/01/11 06:31:31;;;;;;;59.55;20.63;;;-4.20;99.90;;;;;;5022562;28;20041;-79
2021/01/11 06:33:58;;;;;;;49.22;18.88;;;-4.30;99.90;;;;;;5023198;28;20041;-78
2021/01/11 06:36:34;;;;;;;52.63;20.20;;;-4.30;99.90;;;;;;5027428;28;20154;-78
2021/01/11 06:39:07;;;;;;;46.25;18.42;;;-4.20;99.90;;;;;;5028847;28;20036;-79
2021/01/11 06:41:33;;;;;;;50.85;17.83;;;-4.20;99.90;;;;;;5027335;28;20083;-80
2021/01/11 06:44:07;;;;;;;46.08;18.58;;;-4.20;99.90;;;;;;5027953;28;20353;-82
2021/01/11 06:46:34;;;;;;;44.55;17.83;;;-4.20;99.90;;;;;;5024455;28;20042;-81
2021/01/11 06:49:00;;;;;;;46.63;20.13;;;-4.20;99.90;;;;;;5036933;28;20040;-81
2021/01/11 06:52:12;;;;;;;55.67;19.27;;;-4.10;99.90;;;;;;5035368;28;20045;-82
2021/01/11 06:54:41;;;;;;;57.17;17.88;;;-4.10;99.90;;;;;;5004146;28;20072;-80
2021/01/11 06:57:23;;;;;;;48.55;18.20;;;-4.10;99.90;;;;;;5015842;28;20061;-81
2021/01/11 06:59:57;;;;;;;38.67;16.10;;;-4.00;99.90;;;;;;5017412;28;20114;-81
2021/01/11 07:02:25;;;;;;;50.38;19.00;;;-4.10;99.90;;;;;;5019115;28;20628;-82
2021/01/11 07:04:52;;;;;;;42.70;17.00;;;-4.10;99.90;;;;;;5022068;28;20081;-78
2021/01/11 07:07:23;;;;;;;50.38;18.48;;;-4.10;99.90;;;;;;5015468;28;20041;-78
2021/01/11 07:09:50;;;;;;;45.47;19.13;;;-4.10;99.90;;;;;;5019335;28;20120;-78
2021/01/11 07:12:20;;;;;;;45.22;17.27;;;-4.10;99.90;;;;;;5018259;28;20064;-78
2021/01/11 07:15:00;;;;;;;44.85;18.23;;;-4.10;99.90;;;;;;5030936;28;20041;-78
2021/01/11 07:17:43;;;;;;;43.13;15.63;;;-4.00;99.90;;;;;;5015964;28;20413;-77
2021/01/11 07:20:11;;;;;;;46.25;17.38;;;-4.00;99.90;;;;;;5023386;28;20385;-80
2021/01/11 07:22:38;;;;;;;41.38;16.30;;;-4.00;99.90;;;;;;5034314;28;20033;-79
2021/01/11 07:25:24;;;;;;;53.53;18.80;;;-4.00;99.90;;;;;;5036376;28;20037;-82
2021/01/11 07:28:03;;;;;;;44.53;16.70;;;-4.00;99.90;;;;;;5018564;28;20041;-82
2021/01/11 07:30:33;;;;;;;53.20;17.95;;;-3.90;99.90;;;;;;5022498;28;20033;-83
2021/01/11 07:32:59;;;;;;;40.10;15.77;;;-3.90;99.90;;;;;;5029128;28;20033;-82
2021/01/11 07:35:25;;;;;;;37.05;15.25;;;-3.90;99.90;;;;;;5019816;28;20063;-80
2021/01/11 07:37:51;;;;;;;41.90;17.48;;;-3.90;99.90;;;;;;5016567;28;20048;-79
2021/01/11 07:40:16;;;;;;;43.63;16.70;;;-3.80;99.90;;;;;;5018270;28;20525;-79
2021/01/11 07:42:42;;;;;;;42.80;18.52;;;-3.80;99.90;;;;;;5031603;28;20092;-80
2021/01/11 07:45:10;;;;;;;40.10;15.85;;;-3.80;99.90;;;;;;5021925;28;20104;-79
2021/01/11 07:47:39;;;;;;;47.10;16.85;;;-3.80;99.90;;;;;;5022248;28;20052;-83
2021/01/11 07:50:06;;;;;;;42.53;15.95;;;-3.70;99.90;;;;;;5023591;28;20041;-80
2021/01/11 07:52:32;;;;;;;43.35;16.58;;;-3.70;99.90;;;;;;5016271;28;20037;-79
2021/01/11 07:55:06;;;;;;;47.15;17.95;;;-3.70;99.90;;;;;;5021765;28;20040;-80
2021/01/11 07:57:32;;;;;;;49.45;18.25;;;-3.60;99.90;;;;;;5023028;28;20082;-81
2021/01/11 07:59:59;;;;;;;46.92;19.13;;;-3.60;99.90;;;;;;5021157;28;20036;-82
2021/01/11 08:02:26;;;;;;;46.60;17.52;;;-3.60;99.90;;;;;;5017839;28;20033;-79
2021/01/11 08:04:51;;;;;;;38.97;16.88;;;-3.60;99.90;;;;;;5024478;28;20053;-82
2021/01/11 08:07:26;;;;;;;37.35;16.20;;;-3.50;99.90;;;;;;5026800;28;20533;-82
2021/01/11 08:09:55;;;;;;;43.83;16.85;;;-3.50;99.90;;;;;;5024992;28;20069;-81
2021/01/11 08:12:21;;;;;;;44.08;17.60;;;-3.50;99.90;;;;;;5022408;28;20041;-80
2021/01/11 08:14:48;;;;;;;42.78;16.80;;;-3.50;99.90;;;;;;5022603;28;20115;-81
2021/01/11 08:17:19;;;;;;;43.55;17.17;;;-3.50;99.90;;;;;;5038367;28;20029;-82
2021/01/11 08:19:52;;;;;;;41.45;17.65;;;-3.40;99.90;;;;;;5019541;28;20045;-80
2021/01/11 08:22:19;;;;;;;46.13;18.05;;;-3.40;99.90;;;;;;5019399;28;20038;-78
2021/01/11 08:25:03;;;;;;;44.97;19.17;;;-3.40;99.90;;;;;;5022032;28;20129;-82
2021/01/11 08:27:36;;;;;;;43.83;16.67;;;-3.30;99.90;;;;;;5022515;28;20502;-82
2021/01/11 08:30:11;;;;;;;37.33;16.50;;;-3.20;99.90;;;;;;5040377;28;20041;-81
2021/01/11 08:32:37;;;;;;;44.08;17.65;;;-3.20;99.90;;;;;;5022864;28;20601;-81
2021/01/11 08:35:14;;;;;;;44.17;16.85;;;-3.20;99.90;;;;;;5026698;28;20053;-78
2021/01/11 08:37:41;;;;;;;43.03;15.25;;;-3.10;99.90;;;;;;5034392;28;20092;-82
2021/01/11 08:40:08;;;;;;;40.72;16.90;;;-3.10;99.90;;;;;;5024072;28;20041;-83
2021/01/11 08:42:34;;;;;;;45.63;17.40;;;-3.10;99.90;;;;;;5017805;28;20034;-81
2021/01/11 08:45:25;;;;;;;42.08;15.55;;;-3.10;99.90;;;;;;5020458;28;20490;-80
2021/01/11 08:48:23;;;;;;;42.67;15.73;;;-3.10;99.90;;;;;;5038731;28;20129;-82
2021/01/11 08:50:51;;;;;;;41.33;15.65;;;-3.10;99.90;;;;;;5024129;28;20509;-82
2021/01/11 08:53:25;;;;;;;47.75;17.67;;;-3.10;99.90;;;;;;5021088;28;20052;-81
2021/01/11 08:56:04;;;;;;;40.67;15.95;;;-3.10;99.90;;;;;;5019068;28;20048;-80
2021/01/11 08:58:31;;;;;;;40.33;16.15;;;-3.00;99.90;;;;;;5032088;28;20049;-82
2021/01/11 09:01:12;;;;;;;50.55;16.08;;;-3.00;99.90;;;;;;5035420;28;20046;-83
2021/01/11 09:03:42;;;;;;;40.47;16.23;;;-2.90;99.90;;;;;;5024926;28;20999;-79
2021/01/11 09:06:08;;;;;;;35.67;14.25;;;-2.90;99.90;;;;;;5039369;28;20056;-80
2021/01/11 09:08:34;;;;;;;43.40;17.48;;;-2.80;99.90;;;;;;5019774;28;20042;-81
2021/01/11 09:11:08;;;;;;;41.20;14.52;;;-2.70;99.90;;;;;;5018365;28;20041;-80
2021/01/11 09:13:33;;;;;;;39.08;14.98;;;-2.70;99.90;;;;;;5018243;28;20041;-82
2021/01/11 09:16:15;;;;;;;35.97;15.15;;;-2.60;99.90;;;;;;5016991;28;20049;-81
2021/01/11 09:18:41;;;;;;;38.72;15.15;;;-2.70;99.90;;;;;;5034245;28;20080;-81
2021/01/11 09:21:07;;;;;;;36.88;14.50;;;-2.60;99.90;;;;;;5018337;28;20545;-81
2021/01/11 09:23:33;;;;;;;37.00;15.90;;;-2.60;99.90;;;;;;5015019;28;20087;-81
2021/01/11 09:25:58;;;;;;;39.47;15.45;;;-2.60;99.90;;;;;;5018956;28;20041;-83
2021/01/11 09:28:24;;;;;;;43.33;14.65;;;-2.60;99.90;;;;;;5025167;28;20029;-82
2021/01/11 09:30:51;;;;;;;43.45;14.85;;;-2.50;99.90;;;;;;5022690;28;20136;-83
2021/01/11 09:33:17;;;;;;;43.15;15.52;;;-2.40;99.90;;;;;;5017898;28;20545;-81
2021/01/11 09:35:42;;;;;;;33.15;13.38;;;-2.40;99.90;;;;;;5033518;28;20037;-78
2021/01/11 09:38:08;;;;;;;36.22;15.05;;;-2.30;99.90;;;;;;5022656;28;20037;-80
2021/01/11 09:40:33;;;;;;;37.22;14.70;;;-2.20;99.90;;;;;;5018622;28;20330;-80
2021/01/11 09:42:59;;;;;;;41.47;15.00;;;-2.20;99.90;;;;;;5020887;28;20061;-80
2021/01/11 09:45:25;;;;;;;42.22;14.40;;;-2.10;99.90;;;;;;5017952;28;20033;-80
2021/01/11 09:47:50;;;;;;;38.80;13.95;;;-2.10;99.90;;;;;;5038321;28;20041;-82
2021/01/11 09:50:17;;;;;;;39.70;14.15;;;-2.10;99.90;;;;;;5028807;28;20037;-79
2021/01/11 09:52:42;;;;;;;38.85;15.32;;;-2.00;99.90;;;;;;5037082;28;20448;-80
2021/01/11 09:55:10;;;;;;;44.63;18.23;;;-2.00;99.90;;;;;;5022303;28;20171;-80
2021/01/11 09:57:37;;;;;;;40.15;16.23;;;-2.00;99.90;;;;;;5024731;28;20037;-81
2021/01/11 10:00:21;;;;;;;35.10;15.57;;;-1.90;99.90;;;;;;5021415;28;20040;-81
2021/01/11 10:02:48;;;;;;;38.45;15.18;;;-1.80;99.90;;;;;;5019575;28;20514;-81
2021/01/11 10:05:16;;;;;;;35.28;14.32;;;-1.80;99.90;;;;;;5016869;28;20064;-79
2021/01/11 10:07:42;;;;;;;38.10;16.00;;;-1.70;99.90;;;;;;5020326;28;23956;-80
2021/01/11 10:10:08;;;;;;;52.80;14.65;;;-1.60;99.90;;;;;;5022303;28;20045;-80
2021/01/11 10:12:34;;;;;;;44.80;14.68;;;-1.60;99.90;;;;;;5032406;28;20041;-81
2021/01/11 10:14:59;;;;;;;33.80;14.27;;;-1.50;99.90;;;;;;5018010;28;20524;-80
2021/01/11 10:17:26;;;;;;;37.65;15.02;;;-1.60;99.90;;;;;;5024676;28;20034;-79
2021/01/11 10:19:52;;;;;;;34.40;14.60;;;-1.60;99.90;;;;;;5029937;28;20048;-78
2021/01/11 10:22:17;;;;;;;32.53;13.82;;;-1.40;99.90;;;;;;5025104;28;20037;-79
2021/01/11 10:24:48;;;;;;;37.75;15.35;;;-1.30;99.90;;;;;;5018368;28;20415;-78
2021/01/11 10:27:13;;;;;;;40.22;15.70;;;-1.30;99.90;;;;;;5024762;28;20064;-79
2021/01/11 10:29:39;;;;;;;38.20;13.32;;;-1.10;99.90;;;;;;5018391;28;20088;-76
2021/01/11 10:32:04;;;;;;;38.65;15.50;;;-1.10;99.90;;;;;;5022037;28;20029;-78
2021/01/11 10:34:30;;;;;;;38.17;15.70;;;-1.00;99.90;;;;;;5015337;28;20044;-80
2021/01/11 10:36:56;;;;;;;37.70;14.15;;;-0.80;99.90;;;;;;5019908;28;20043;-81
2021/01/11 10:39:24;;;;;;;32.10;14.52;;;-0.80;99.90;;;;;;5045919;23;20046;-80
2021/01/11 10:41:50;;;;;;;32.92;13.40;;;-0.80;99.90;;;;;;5020684;28;20105;-77
2021/01/11 10:44:16;;;;;;;35.10;12.85;;;-0.80;99.30;;;;;;5019805;28;20062;-79
2021/01/11 10:46:42;;;;;;;29.73;14.02;;;-0.70;98.90;;;;;;5029416;28;20042;-80
2021/01/11 10:49:08;;;;;;;37.53;14.95;;;-0.70;98.40;;;;;;5024889;28;20041;-77
2021/01/11 10:51:33;;;;;;;31.50;13.57;;;-0.60;99.20;;;;;;5013546;28;20160;-84
2021/01/11 10:53:59;;;;;;;33.92;14.48;;;-0.60;99.20;;;;;;5020553;28;20034;-82
2021/01/11 10:56:25;;;;;;;35.22;14.85;;;-0.50;98.70;;;;;;5020524;28;20061;-84
2021/01/11 10:58:50;;;;;;;33.17;14.85;;;-0.50;98.00;;;;;;5027984;28;20048;-79
2021/01/11 11:01:16;;;;;;;34.20;13.73;;;-0.40;97.90;;;;;;5052878;28;20029;-82
2021/01/11 11:03:42;;;;;;;29.05;13.13;;;-0.40;97.70;;;;;;5037198;28;20054;-80
2021/01/11 11:06:08;;;;;;;33.55;13.63;;;-0.50;96.20;;;;;;5026262;28;20060;-82
2021/01/11 11:08:34;;;;;;;30.60;13.18;;;-0.50;96.30;;;;;;5017730;28;20041;-80
2021/01/11 11:11:00;;;;;;;32.45;13.57;;;-0.50;96.90;;;;;;5014579;28;20034;-81
2021/01/11 11:13:25;;;;;;;38.35;13.30;;;-0.40;96.80;;;;;;5016215;28;20037;-82
2021/01/11 11:15:51;;;;;;;32.50;12.05;;;-0.50;96.70;;;;;;5012416;28;20100;-82
2021/01/11 11:18:17;;;;;;;32.75;12.50;;;-0.40;96.70;;;;;;5017304;28;20447;-84
2021/01/11 11:20:47;;;;;;;29.98;13.15;;;-0.40;96.20;;;;;;5015698;28;20050;-80
2021/01/11 11:23:13;;;;;;;34.75;12.48;;;-0.40;96.20;;;;;;5017230;28;20498;-83
2021/01/11 11:25:45;;;;;;;28.15;12.00;;;-0.40;95.40;;;;;;5025208;28;20045;-83
2021/01/11 11:28:11;;;;;;;29.67;12.52;;;-0.40;95.30;;;;;;5024588;28;20132;-82
2021/01/11 11:30:37;;;;;;;32.83;12.57;;;-0.30;95.60;;;;;;5020788;28;20538;-82
2021/01/11 11:33:03;;;;;;;29.17;12.93;;;-0.20;94.80;;;;;;5014311;28;20048;-83
2021/01/11 11:35:29;;;;;;;36.75;12.30;;;-0.30;94.70;;;;;;5012803;28;20513;-82
2021/01/11 11:37:55;;;;;;;30.83;13.82;;;-0.20;94.70;;;;;;5017424;28;20048;-82
2021/01/11 11:40:21;;;;;;;32.20;14.15;;;-0.20;94.70;;;;;;5018137;28;20062;-82
2021/01/11 11:42:47;;;;;;;28.65;12.57;;;-0.10;94.40;;;;;;5009068;28;20748;-82
2021/01/11 11:45:15;;;;;;;33.10;12.18;;;-0.20;94.10;;;;;;5010027;28;20790;-82
2021/01/11 11:47:41;;;;;;;26.83;12.38;;;-0.20;93.90;;;;;;5017879;28;20125;-81
2021/01/11 11:50:15;;;;;;;26.67;11.55;;;-0.20;93.40;;;;;;5021498;28;20050;-82
2021/01/11 11:52:41;;;;;;;28.93;12.27;;;-0.10;93.10;;;;;;5010276;28;20046;-82
2021/01/11 11:55:11;;;;;;;34.05;12.85;;;0.00;93.30;;;;;;5011840;28;20044;-83
2021/01/11 11:57:44;;;;;;;25.95;11.73;;;0.00;93.40;;;;;;5014670;28;20064;-83
2021/01/11 12:00:12;;;;;;;30.25;11.95;;;0.00;93.00;;;;;;5007932;28;20038;-83
2021/01/11 12:02:41;;;;;;;33.35;13.30;;;0.10;93.20;;;;;;5007348;28;20585;-82
2021/01/11 12:05:09;;;;;;;30.60;12.18;;;0.10;92.60;;;;;;5018976;28;20068;-84
2021/01/11 12:07:35;;;;;;;36.10;13.20;;;0.10;92.80;;;;;;5012300;28;20078;-80
2021/01/11 12:10:00;;;;;;;30.98;13.60;;;0.20;92.50;;;;;;5017332;28;20044;-84
2021/01/11 12:12:26;;;;;;;35.85;12.98;;;0.20;92.10;;;;;;5018583;28;20050;-83
2021/01/11 12:14:51;;;;;;;33.08;13.07;;;0.20;91.60;;;;;;5019580;28;20066;-82
2021/01/11 12:17:17;;;;;;;38.50;13.77;;;0.30;91.60;;;;;;5017589;28;20046;-82
2021/01/11 12:19:42;;;;;;;28.73;11.88;;;0.30;91.80;;;;;;5021642;28;20067;-83
2021/01/11 12:22:11;;;;;;;29.42;13.25;;;0.30;91.70;;;;;;5034512;28;20033;-81
2021/01/11 12:24:38;;;;;;;33.78;12.35;;;0.30;91.90;;;;;;5030767;28;20048;-82
2021/01/11 12:27:04;;;;;;;35.15;12.77;;;0.40;91.70;;;;;;5032931;28;20041;-82
2021/01/11 12:29:30;;;;;;;30.35;12.10;;;0.40;91.40;;;;;;5030514;28;20037;-81
2021/01/11 12:31:56;;;;;;;29.45;12.55;;;0.40;91.10;;;;;;5037974;28;20033;-81
2021/01/11 12:34:21;;;;;;;31.50;13.07;;;0.50;91.10;;;;;;5036443;28;20048;-82
2021/01/11 12:36:47;;;;;;;31.00;12.70;;;0.50;91.10;;;;;;5036771;28;20153;-83